Terminal Aerodrome Forecast
Issued by NWS Buffalo, NY

Home | Current Version | Previous Version | Text Only | Print | Product List | Glossary On
Versions: 1 2 3 4 5 6 7 8 9 10 11 12 13 14 15 16 17 18 19 20 21 22 23 24
700
FTUS41 KBUF 301738
TAFBUF
TAF
KBUF 301738Z 3018/3118 07010KT P6SM SCT080 BKN150
     FM310000 07007KT P6SM BKN080
     FM310600 09006KT P6SM VCSH BKN040
     FM311000 08005KT 6SM -SHRA SCT015 OVC035=

USA.gov is the U.S. government's official web portal to all federal, state and local government web resources and services.